createdAt,value
2019-03-03T00:00:56.137Z,26.87
2019-03-03T00:03:27.688Z,26.97
2019-03-03T00:06:01.374Z,29.03
2019-03-03T00:08:31.873Z,29.47
2019-03-03T00:11:01.483Z,28.57
2019-03-03T00:13:31.393Z,29.00
2019-03-03T00:16:02.708Z,28.10
2019-03-03T00:18:34.112Z,29.03
2019-03-03T00:21:09.647Z,27.70
2019-03-03T00:23:39.072Z,26.47
2019-03-03T00:26:08.822Z,27.85
2019-03-03T00:28:38.199Z,26.10
2019-03-03T00:31:07.598Z,26.53
2019-03-03T00:33:37.572Z,27.13
2019-03-03T00:36:11.625Z,27.65
2019-03-03T00:39:03.698Z,28.57
2019-03-03T00:41:53.645Z,28.43
2019-03-03T00:44:41.988Z,28.97
2019-03-03T00:47:36.745Z,30.55
2019-03-03T00:50:28.759Z,28.85
2019-03-03T00:53:04.674Z,29.27
2019-03-03T00:55:54.526Z,30.77
2019-03-03T00:58:51.983Z,31.43
2019-03-03T01:01:32.412Z,32.10
2019-03-03T01:04:09.781Z,30.27
2019-03-03T01:07:07.338Z,27.67
2019-03-03T01:10:02.198Z,28.10
2019-03-03T01:12:54.540Z,30.30
2019-03-03T01:15:54.548Z,28.43
2019-03-03T01:19:02.643Z,27.63
2019-03-03T01:21:53.961Z,28.35
2019-03-03T01:24:37.075Z,27.97
2019-03-03T01:27:06.453Z,26.07
2019-03-03T01:29:35.858Z,26.57
2019-03-03T01:32:05.771Z,25.92
2019-03-03T01:34:36.255Z,26.60
2019-03-03T01:37:05.763Z,26.00
2019-03-03T01:39:35.294Z,25.02
2019-03-03T01:42:04.922Z,24.90
2019-03-03T01:44:35.786Z,24.03
2019-03-03T01:47:08.211Z,25.48
2019-03-03T01:49:37.887Z,25.23
2019-03-03T01:52:07.556Z,24.90
2019-03-03T01:54:38.237Z,23.70
2019-03-03T01:57:08.035Z,23.90
2019-03-03T01:59:37.658Z,24.03
2019-03-03T02:02:11.485Z,22.87
2019-03-03T02:04:40.920Z,24.23
2019-03-03T02:07:11.534Z,21.47
2019-03-03T02:09:41.022Z,21.27
2019-03-03T02:12:12.993Z,21.50
2019-03-03T02:14:43.092Z,20.05
2019-03-03T02:17:14.243Z,21.55
2019-03-03T02:19:43.653Z,18.67
2019-03-03T02:22:13.047Z,19.63
2019-03-03T02:24:44.816Z,18.98
2019-03-03T02:27:14.314Z,20.70
2019-03-03T02:29:43.737Z,18.90
2019-03-03T02:32:13.367Z,19.83
2019-03-03T02:34:42.793Z,19.35
2019-03-03T02:37:12.195Z,21.37
2019-03-03T02:39:41.672Z,19.60
2019-03-03T02:42:12.844Z,19.13
2019-03-03T02:44:43.461Z,18.83
2019-03-03T02:47:13.162Z,18.77
2019-03-03T02:49:44.022Z,17.82
2019-03-03T02:52:13.406Z,17.75
2019-03-03T02:54:42.922Z,16.37
2019-03-03T02:57:12.739Z,17.32
2019-03-03T02:59:43.988Z,17.67
2019-03-03T03:02:33.630Z,16.80
2019-03-03T03:05:03.624Z,16.27
2019-03-03T03:07:47.367Z,15.00
2019-03-03T03:10:26.444Z,15.13
2019-03-03T03:13:26.943Z,13.80
2019-03-03T03:16:09.133Z,13.60
2019-03-03T03:18:48.479Z,12.60
2019-03-03T03:21:24.537Z,13.03
2019-03-03T03:24:12.884Z,11.77
2019-03-03T03:27:07.322Z,11.87
2019-03-03T03:30:01.226Z,10.95
2019-03-03T03:32:38.415Z,10.63
2019-03-03T03:35:23.369Z,10.10
2019-03-03T03:38:04.774Z,9.47
2019-03-03T03:40:53.307Z,9.55
2019-03-03T03:43:56.904Z,9.83
2019-03-03T03:46:43.267Z,9.07
2019-03-03T03:49:31.532Z,8.88
2019-03-03T03:52:33.803Z,9.17
2019-03-03T03:55:19.429Z,9.00
2019-03-03T03:57:56.724Z,8.43
2019-03-03T04:00:38.232Z,8.00
2019-03-03T04:03:38.651Z,8.35
2019-03-03T04:06:28.760Z,7.08
2019-03-03T04:09:12.513Z,6.83
2019-03-03T04:12:06.868Z,7.20
2019-03-03T04:14:55.541Z,7.40
2019-03-03T04:17:32.934Z,6.60
2019-03-03T04:20:39.809Z,6.50
2019-03-03T04:23:28.992Z,6.93
2019-03-03T04:26:10.534Z,6.30
2019-03-03T04:29:04.697Z,6.60
2019-03-03T04:31:52.018Z,7.23
2019-03-03T04:34:40.315Z,6.13
2019-03-03T04:37:25.361Z,5.92
2019-03-03T04:40:13.642Z,7.03
2019-03-03T04:43:11.173Z,6.47
2019-03-03T04:45:58.782Z,6.23
2019-03-03T04:48:36.420Z,6.07
2019-03-03T04:51:29.151Z,5.77
2019-03-03T04:54:34.389Z,6.23
2019-03-03T04:57:16.974Z,6.13
2019-03-03T05:00:05.537Z,6.40
2019-03-03T05:02:54.285Z,5.50
2019-03-03T05:05:42.808Z,5.53
2019-03-03T05:08:22.865Z,6.30
2019-03-03T05:11:10.243Z,5.70
2019-03-03T05:13:47.710Z,5.67
2019-03-03T05:16:52.917Z,6.40
2019-03-03T05:19:29.521Z,6.47
2019-03-03T05:22:00.733Z,5.80
2019-03-03T05:24:34.354Z,6.10
2019-03-03T05:27:02.746Z,6.23
2019-03-03T05:29:32.179Z,6.10
2019-03-03T05:32:03.875Z,6.43
2019-03-03T05:34:34.431Z,6.30
2019-03-03T05:37:04.264Z,6.27
2019-03-03T05:39:35.679Z,5.93
2019-03-03T05:42:05.179Z,6.80
2019-03-03T05:44:36.364Z,6.65
2019-03-03T05:47:06.051Z,6.80
2019-03-03T05:49:37.364Z,6.67
2019-03-03T05:52:07.752Z,6.43
2019-03-03T05:54:37.335Z,6.80
2019-03-03T05:57:06.762Z,7.37
2019-03-03T05:59:36.356Z,7.53
2019-03-03T06:02:07.506Z,6.67
2019-03-03T06:04:36.910Z,7.97
2019-03-03T06:07:06.486Z,7.37
2019-03-03T06:09:35.942Z,7.67
2019-03-03T06:12:05.570Z,7.97
2019-03-03T06:14:34.989Z,7.70
2019-03-03T06:17:05.583Z,7.40
2019-03-03T06:19:36.434Z,7.60
2019-03-03T06:22:05.837Z,7.63
2019-03-03T06:24:36.561Z,8.38
2019-03-03T06:27:05.958Z,9.13
2019-03-03T06:29:35.501Z,8.30
2019-03-03T06:32:05.197Z,9.00
2019-03-03T06:34:34.566Z,9.03
2019-03-03T06:37:03.961Z,8.90
2019-03-03T06:39:34.634Z,9.00
2019-03-03T06:42:04.024Z,8.53
2019-03-03T06:44:33.454Z,8.27
2019-03-03T06:47:03.178Z,7.97
2019-03-03T06:49:32.575Z,9.23
2019-03-03T06:52:01.948Z,8.60
2019-03-03T06:54:32.526Z,9.40
2019-03-03T06:57:01.916Z,8.50
2019-03-03T06:59:31.367Z,8.17
2019-03-03T07:02:00.881Z,7.87
2019-03-03T07:04:30.911Z,7.67
2019-03-03T07:07:00.765Z,7.95
2019-03-03T07:09:31.692Z,7.70
2019-03-03T07:12:01.190Z,7.57
2019-03-03T07:14:32.707Z,7.73
2019-03-03T07:17:02.163Z,7.00
2019-03-03T07:19:31.567Z,7.20
2019-03-03T07:22:00.981Z,6.60
2019-03-03T07:24:32.021Z,7.05
2019-03-03T07:27:01.420Z,6.20
2019-03-03T07:29:31.842Z,7.47
2019-03-03T07:32:01.426Z,6.93
2019-03-03T07:34:32.707Z,8.07
2019-03-03T07:37:03.675Z,8.53
2019-03-03T07:39:33.461Z,9.67
2019-03-03T07:42:02.851Z,9.53
2019-03-03T07:44:32.293Z,9.83
2019-03-03T07:47:01.730Z,12.10
2019-03-03T07:49:31.139Z,15.80
2019-03-03T07:52:00.940Z,14.55
2019-03-03T07:54:32.398Z,16.52
2019-03-03T07:57:01.815Z,18.90
2019-03-03T07:59:32.358Z,18.80
2019-03-03T08:02:03.558Z,17.47
2019-03-03T08:04:34.797Z,21.63
2019-03-03T08:07:04.252Z,19.60
2019-03-03T08:09:33.733Z,18.27
2019-03-03T08:12:03.090Z,19.33
2019-03-03T08:14:32.923Z,20.33
2019-03-03T08:17:02.407Z,19.87
2019-03-03T08:19:31.830Z,18.87
2019-03-03T08:22:01.221Z,19.93
2019-03-03T08:24:32.985Z,18.90
2019-03-03T08:27:02.392Z,16.83
2019-03-03T08:29:31.875Z,17.77
2019-03-03T08:32:01.481Z,15.43
2019-03-03T08:34:30.976Z,14.30
2019-03-03T08:37:00.894Z,13.93
2019-03-03T08:39:32.090Z,13.62
2019-03-03T08:42:22.313Z,16.33
2019-03-03T08:45:08.447Z,15.40
2019-03-03T08:47:54.271Z,14.10
2019-03-03T08:50:42.268Z,15.63
2019-03-03T08:53:29.259Z,17.17
2019-03-03T08:56:17.879Z,16.17
2019-03-03T08:59:13.370Z,21.07
2019-03-03T09:02:10.754Z,21.50
2019-03-03T09:04:55.151Z,20.50
2019-03-03T09:07:49.653Z,21.03
2019-03-03T09:11:01.636Z,22.87
2019-03-03T09:13:42.527Z,24.57
2019-03-03T09:16:27.959Z,21.77
2019-03-03T09:19:05.760Z,20.87
2019-03-03T09:21:45.485Z,19.77
2019-03-03T09:24:34.292Z,20.75
2019-03-03T09:27:16.655Z,20.03
2019-03-03T09:30:14.262Z,20.15
2019-03-03T09:32:55.170Z,17.50
2019-03-03T09:35:49.949Z,18.33
2019-03-03T09:38:45.080Z,18.03
2019-03-03T09:41:45.770Z,17.40
2019-03-03T09:44:34.084Z,16.20
2019-03-03T09:47:40.967Z,14.97
2019-03-03T09:50:36.878Z,15.20
2019-03-03T09:53:17.681Z,14.73
2019-03-03T09:56:14.878Z,13.97
2019-03-03T09:59:09.455Z,15.60
2019-03-03T10:01:57.756Z,13.57
2019-03-03T10:04:46.098Z,12.10
2019-03-03T10:07:40.621Z,10.68
2019-03-03T10:10:31.616Z,8.63
2019-03-03T10:13:24.599Z,8.80
2019-03-03T10:16:13.109Z,7.67
2019-03-03T10:18:55.501Z,7.50
2019-03-03T10:21:42.922Z,7.87
2019-03-03T10:24:43.317Z,7.22
2019-03-03T10:27:42.349Z,6.30
2019-03-03T10:30:39.634Z,6.63
2019-03-03T10:33:27.320Z,6.00
2019-03-03T10:36:04.450Z,6.00
2019-03-03T10:38:47.410Z,5.80
2019-03-03T10:41:33.289Z,5.53
2019-03-03T10:44:20.565Z,5.60
2019-03-03T10:47:08.902Z,5.63
2019-03-03T10:49:46.195Z,6.43
2019-03-03T10:52:26.352Z,6.55
2019-03-03T10:55:08.430Z,7.03
2019-03-03T10:58:07.259Z,7.13
2019-03-03T11:00:48.211Z,6.60
2019-03-03T11:03:50.152Z,6.70
2019-03-03T11:06:47.287Z,6.93
2019-03-03T11:09:32.633Z,7.37
2019-03-03T11:12:26.514Z,6.57
2019-03-03T11:15:18.480Z,6.93
2019-03-03T11:18:05.928Z,7.03
2019-03-03T11:20:53.425Z,7.50
2019-03-03T11:23:41.188Z,6.83
2019-03-03T11:26:28.514Z,7.57
2019-03-03T11:29:26.409Z,7.37
2019-03-03T11:32:14.712Z,7.40
2019-03-03T11:35:07.346Z,7.55
2019-03-03T11:37:58.513Z,6.97
2019-03-03T11:40:50.602Z,7.60
2019-03-03T11:43:48.238Z,7.00
2019-03-03T11:46:37.628Z,6.60
2019-03-03T11:49:27.965Z,6.03
2019-03-03T11:52:10.158Z,6.30
2019-03-03T11:55:06.561Z,5.87
2019-03-03T11:57:46.203Z,5.20
2019-03-03T12:00:33.505Z,4.85
2019-03-03T12:03:35.171Z,4.43
2019-03-03T12:06:23.666Z,4.73
2019-03-03T12:09:28.846Z,4.67
2019-03-03T12:12:18.981Z,4.73
2019-03-03T12:15:07.410Z,4.60
2019-03-03T12:17:51.756Z,4.80
2019-03-03T12:20:49.464Z,5.10
2019-03-03T12:23:26.460Z,5.10
2019-03-03T12:26:18.187Z,5.70
2019-03-03T12:29:05.538Z,6.63
2019-03-03T12:31:59.967Z,9.30
2019-03-03T12:34:52.064Z,11.03
2019-03-03T12:37:39.609Z,11.00
2019-03-03T12:40:21.307Z,8.43
2019-03-03T12:43:08.246Z,9.03
2019-03-03T12:46:12.945Z,6.63
2019-03-03T12:49:14.091Z,5.43
2019-03-03T12:52:14.480Z,5.33
2019-03-03T12:55:05.953Z,4.80
2019-03-03T12:58:03.781Z,4.93
2019-03-03T13:00:48.031Z,4.83
2019-03-03T13:03:42.658Z,5.07
2019-03-03T13:06:24.314Z,4.73
2019-03-03T13:09:00.638Z,6.50
2019-03-03T13:11:55.076Z,6.27
2019-03-03T13:14:36.078Z,6.20
2019-03-03T13:17:18.990Z,6.80
2019-03-03T13:20:12.082Z,5.60
2019-03-03T13:23:00.991Z,4.40
2019-03-03T13:25:49.765Z,4.95
2019-03-03T13:28:34.561Z,4.43
2019-03-03T13:31:12.676Z,4.73
2019-03-03T13:34:08.503Z,4.20
2019-03-03T13:37:07.749Z,4.70
2019-03-03T13:39:57.702Z,5.60
2019-03-03T13:42:36.182Z,5.93
2019-03-03T13:45:06.682Z,8.30
2019-03-03T13:47:37.985Z,7.47
2019-03-03T13:50:09.660Z,9.30
2019-03-03T13:52:40.525Z,9.05
2019-03-03T13:55:11.394Z,8.48
2019-03-03T13:57:40.980Z,7.50
2019-03-03T14:00:14.596Z,8.43
2019-03-03T14:02:44.052Z,9.20
2019-03-03T14:05:14.890Z,9.87
2019-03-03T14:07:45.745Z,9.78
2019-03-03T14:10:14.887Z,8.60
2019-03-03T14:12:44.688Z,7.60
2019-03-03T14:15:15.939Z,6.80
2019-03-03T14:17:45.718Z,7.25
2019-03-03T14:20:18.309Z,8.23
2019-03-03T14:22:49.794Z,8.60
2019-03-03T14:25:19.425Z,9.75
2019-03-03T14:27:49.328Z,8.97
2019-03-03T14:30:20.901Z,8.95
2019-03-03T14:32:50.324Z,8.67
2019-03-03T14:35:19.879Z,8.57
2019-03-03T14:37:52.098Z,6.70
2019-03-03T14:40:22.304Z,6.07
2019-03-03T14:42:52.138Z,6.17
2019-03-03T14:45:22.280Z,4.83
2019-03-03T14:47:51.811Z,4.60
2019-03-03T14:50:22.499Z,4.67
2019-03-03T14:52:52.141Z,4.77
2019-03-03T14:55:22.598Z,5.30
2019-03-03T14:57:52.077Z,5.50
2019-03-03T15:00:30.898Z,5.87
2019-03-03T15:03:04.948Z,6.43
2019-03-03T15:05:34.446Z,5.73
2019-03-03T15:08:04.200Z,5.07
2019-03-03T15:10:34.864Z,4.23
2019-03-03T15:13:04.501Z,4.00
2019-03-03T15:15:34.612Z,3.93
2019-03-03T15:18:03.980Z,3.30
2019-03-03T15:20:33.993Z,2.93
2019-03-03T15:23:03.831Z,3.03
2019-03-03T15:25:33.192Z,3.13
2019-03-03T15:28:02.874Z,3.10
2019-03-03T15:30:32.396Z,3.10
2019-03-03T15:33:02.806Z,3.13
2019-03-03T15:35:33.989Z,3.27
2019-03-03T15:38:03.935Z,3.37
2019-03-03T15:40:33.423Z,3.70
2019-03-03T15:43:04.419Z,3.97
2019-03-03T15:45:33.807Z,3.73
2019-03-03T15:48:03.290Z,3.10
2019-03-03T15:50:32.924Z,3.77
2019-03-03T15:53:02.305Z,3.67
2019-03-03T15:55:31.742Z,4.17
2019-03-03T15:58:01.843Z,4.03
2019-03-03T16:00:32.221Z,4.30
2019-03-03T16:03:03.319Z,4.50
2019-03-03T16:05:32.761Z,4.27
2019-03-03T16:08:02.148Z,5.13
2019-03-03T16:10:31.733Z,5.28
2019-03-03T16:13:03.773Z,7.42
2019-03-03T16:15:33.014Z,8.60
2019-03-03T16:18:04.978Z,10.53
2019-03-03T16:20:34.483Z,12.03
2019-03-03T16:23:04.902Z,13.73
2019-03-03T16:25:35.420Z,14.33
2019-03-03T16:28:05.139Z,15.03
2019-03-03T16:30:34.525Z,14.87
2019-03-03T16:33:03.990Z,14.70
2019-03-03T16:35:33.690Z,14.30
2019-03-03T16:38:03.103Z,12.80
2019-03-03T16:40:39.483Z,12.43
2019-03-03T16:43:04.792Z,11.83
2019-03-03T16:45:35.289Z,12.30
2019-03-03T16:48:04.805Z,12.93
2019-03-03T16:50:34.420Z,16.17
2019-03-03T16:53:03.835Z,14.53
2019-03-03T16:55:33.273Z,10.00
2019-03-03T16:58:02.735Z,7.53
2019-03-03T17:00:32.125Z,6.90
2019-03-03T17:03:01.864Z,6.60
2019-03-03T17:05:32.857Z,6.27
2019-03-03T17:08:02.331Z,5.73
2019-03-03T17:10:31.840Z,5.20
2019-03-03T17:13:02.021Z,5.90
2019-03-03T17:15:31.791Z,5.57
2019-03-03T17:18:01.898Z,6.97
2019-03-03T17:20:33.302Z,5.40
2019-03-03T17:23:04.182Z,7.67
2019-03-03T17:25:33.995Z,13.83
2019-03-03T17:28:03.604Z,6.40
2019-03-03T17:30:34.804Z,8.57
2019-03-03T17:33:05.551Z,6.93
2019-03-03T17:35:36.524Z,8.63
2019-03-03T17:38:05.923Z,8.23
2019-03-03T17:40:35.322Z,14.33
2019-03-03T17:43:04.867Z,6.73
2019-03-03T17:45:34.371Z,9.40
2019-03-03T17:48:03.764Z,11.30
2019-03-03T17:50:33.399Z,7.27
2019-03-03T17:53:02.809Z,14.23
2019-03-03T17:55:32.182Z,9.47
2019-03-03T17:58:03.139Z,6.95
2019-03-03T18:00:34.614Z,8.00
2019-03-03T18:03:03.987Z,8.33
2019-03-03T18:05:34.736Z,13.53
2019-03-03T18:08:04.099Z,8.90
2019-03-03T18:10:35.383Z,13.03
2019-03-03T18:13:06.120Z,8.63
2019-03-03T18:15:35.480Z,8.20
2019-03-03T18:18:05.950Z,13.33
2019-03-03T18:20:36.713Z,13.20
2019-03-03T18:23:06.111Z,9.73
2019-03-03T18:25:35.715Z,10.43
2019-03-03T18:28:06.225Z,11.07
2019-03-03T18:30:36.097Z,10.07
2019-03-03T18:33:05.459Z,9.90
2019-03-03T18:35:34.912Z,10.50
2019-03-03T18:38:06.114Z,13.47
2019-03-03T18:40:37.357Z,9.77
2019-03-03T18:43:28.674Z,10.00
2019-03-03T18:45:59.145Z,10.60
2019-03-03T18:48:28.530Z,14.43
2019-03-03T18:50:59.782Z,10.90
2019-03-03T18:53:32.759Z,12.77
2019-03-03T18:56:02.327Z,10.80
2019-03-03T18:58:34.204Z,10.83
2019-03-03T19:01:04.858Z,10.97
2019-03-03T19:03:34.350Z,11.33
2019-03-03T19:06:03.933Z,10.70
2019-03-03T19:08:33.477Z,10.53
2019-03-03T19:11:03.985Z,10.33
2019-03-03T19:13:35.499Z,10.83
2019-03-03T19:16:04.875Z,10.70
2019-03-03T19:18:35.682Z,11.43
2019-03-03T19:21:05.341Z,9.57
2019-03-03T19:23:34.720Z,11.33
2019-03-03T19:26:05.626Z,12.53
2019-03-03T19:28:35.190Z,14.30
2019-03-03T19:31:05.294Z,11.43
2019-03-03T19:33:40.357Z,11.20
2019-03-03T19:36:10.918Z,11.60
2019-03-03T19:38:41.714Z,11.87
2019-03-03T19:41:11.132Z,11.93
2019-03-03T19:43:40.745Z,11.75
2019-03-03T19:46:10.190Z,11.63
2019-03-03T19:48:41.399Z,12.53
2019-03-03T19:51:11.199Z,12.70
2019-03-03T19:53:40.720Z,12.60
2019-03-03T19:56:13.186Z,13.18
2019-03-03T19:58:42.900Z,12.40
2019-03-03T20:01:13.657Z,13.50
2019-03-03T20:03:43.051Z,13.50
2019-03-03T20:06:12.649Z,13.60
2019-03-03T20:08:42.072Z,13.50
2019-03-03T20:11:13.013Z,14.07
2019-03-03T20:13:44.754Z,14.40
2019-03-03T20:16:14.165Z,14.70
2019-03-03T20:18:43.564Z,15.63
2019-03-03T20:21:13.297Z,15.67
2019-03-03T20:23:42.752Z,16.75
2019-03-03T20:26:12.147Z,16.37
2019-03-03T20:28:41.738Z,16.45
2019-03-03T20:31:11.113Z,17.50
2019-03-03T20:33:40.491Z,16.60
2019-03-03T20:36:09.977Z,16.33
2019-03-03T20:38:39.479Z,18.37
2019-03-03T20:41:08.880Z,19.15
2019-03-03T20:43:38.638Z,18.35
2019-03-03T20:46:08.047Z,17.87
2019-03-03T20:48:40.509Z,18.95
2019-03-03T20:51:09.987Z,18.23
2019-03-03T20:53:39.398Z,17.87
2019-03-03T20:56:08.791Z,18.07
2019-03-03T20:58:38.384Z,18.23
2019-03-03T21:01:07.783Z,17.90
2019-03-03T21:03:38.369Z,19.33
2019-03-03T21:06:10.257Z,18.07
2019-03-03T21:08:39.678Z,19.77
2019-03-03T21:11:09.172Z,17.65
2019-03-03T21:13:39.782Z,18.50
2019-03-03T21:16:09.178Z,16.13
2019-03-03T21:18:39.758Z,15.50
2019-03-03T21:21:10.539Z,15.83
2019-03-03T21:23:39.911Z,16.32
2019-03-03T21:26:09.331Z,16.60
2019-03-03T21:28:40.523Z,15.18
2019-03-03T21:31:10.020Z,15.07
2019-03-03T21:33:39.413Z,14.30
2019-03-03T21:36:08.861Z,14.80
2019-03-03T21:38:38.261Z,15.90
2019-03-03T21:41:08.957Z,13.63
2019-03-03T21:43:38.478Z,13.78
2019-03-03T21:46:07.879Z,13.53
2019-03-03T21:48:37.523Z,12.78
2019-03-03T21:51:08.298Z,13.73
2019-03-03T21:53:37.750Z,11.77
2019-03-03T21:56:08.151Z,12.40
2019-03-03T21:58:37.764Z,12.28
2019-03-03T22:01:07.903Z,12.40
2019-03-03T22:03:40.332Z,11.37
2019-03-03T22:06:10.053Z,12.63
2019-03-03T22:08:39.452Z,12.03
2019-03-03T22:11:10.300Z,12.73
2019-03-03T22:13:39.742Z,10.65
2019-03-03T22:16:09.217Z,11.55
2019-03-03T22:18:39.828Z,10.63
2019-03-03T22:21:09.565Z,10.78
2019-03-03T22:23:38.969Z,12.77
2019-03-03T22:26:11.470Z,11.90
2019-03-03T22:28:41.156Z,10.53
2019-03-03T22:31:14.180Z,11.12
2019-03-03T22:33:43.581Z,13.15
2019-03-03T22:36:14.122Z,11.63
2019-03-03T22:38:45.321Z,10.73
2019-03-03T22:41:14.847Z,12.00
2019-03-03T22:43:45.699Z,9.90
2019-03-03T22:46:17.604Z,9.95
2019-03-03T22:48:48.890Z,10.65
2019-03-03T22:51:18.373Z,9.77
2019-03-03T22:53:49.973Z,9.78
2019-03-03T22:56:19.392Z,9.68
2019-03-03T22:58:49.185Z,10.23
2019-03-03T23:01:28.555Z,8.00
2019-03-03T23:04:41.848Z,8.57
2019-03-03T23:07:35.648Z,8.47
2019-03-03T23:10:49.152Z,9.80
2019-03-03T23:13:46.161Z,8.75
2019-03-03T23:16:59.044Z,7.97
2019-03-03T23:20:08.340Z,7.83
2019-03-03T23:23:14.706Z,8.00
2019-03-03T23:25:49.026Z,8.53
2019-03-03T23:28:19.112Z,7.85
2019-03-03T23:30:48.908Z,8.37
2019-03-03T23:33:20.583Z,7.65
2019-03-03T23:35:51.609Z,8.60
2019-03-03T23:38:21.334Z,8.10
2019-03-03T23:40:50.739Z,7.70
2019-03-03T23:43:20.535Z,8.20
2019-03-03T23:45:50.062Z,7.83
2019-03-03T23:48:19.484Z,8.40
2019-03-03T23:50:48.965Z,8.50
2019-03-03T23:53:18.536Z,8.80
2019-03-03T23:55:47.970Z,7.83
2019-03-03T23:58:18.811Z,8.00
